Time;durP1;ratioP1;P1;durP2;ratioP2;P2;SDS_P1;SDS_P2;PMS_P1;PMS_P2;Temp;Humidity;BMP_temperature;BMP_pressure;BME280_temperature;BME280_humidity;BME280_pressure;Samples;Min_cycle;Max_cycle;Signal;HPM_P1;HPM_P2
2023/09/02 00:01:09;;;;;;;9.50;8.80;;;;;;;20.58;58.26;95266.31;5054908;28;20507;-68
2023/09/02 00:03:36;;;;;;;9.65;8.95;;;;;;;20.55;58.36;95272.78;5070440;28;20217;-67
2023/09/02 00:06:03;;;;;;;8.93;8.25;;;;;;;20.55;58.45;95278.38;5054106;28;20194;-68
2023/09/02 00:08:31;;;;;;;9.73;9.02;;;;;;;20.52;58.28;95273.59;5053899;28;20193;-67
2023/09/02 00:10:58;;;;;;;9.63;8.82;;;;;;;20.50;58.52;95267.59;5053804;28;20201;-67
2023/09/02 00:13:24;;;;;;;10.40;9.50;;;;;;;20.49;58.57;95277.19;5053953;28;20212;-68
2023/09/02 00:15:51;;;;;;;9.52;8.77;;;;;;;20.47;58.77;95270.41;5053847;28;20198;-68
2023/09/02 00:18:18;;;;;;;10.80;9.80;;;;;;;20.45;58.88;95268.03;5053667;28;20205;-68
2023/09/02 00:20:45;;;;;;;10.52;9.57;;;;;;;20.41;58.64;95262.44;5053603;28;20201;-68
2023/09/02 00:23:12;;;;;;;9.90;9.10;;;;;;;20.38;58.91;95274.47;5054490;28;20217;-68
2023/09/02 00:25:41;;;;;;;10.13;9.23;;;;;;;20.34;58.70;95265.31;5053640;28;20247;-67
2023/09/02 00:28:08;;;;;;;9.70;8.90;;;;;;;20.29;58.80;95271.31;5053280;28;20213;-68
2023/09/02 00:30:34;;;;;;;9.82;9.02;;;;;;;20.27;59.14;95265.34;5053561;28;20194;-68
2023/09/02 00:33:01;;;;;;;9.75;8.95;;;;;;;20.24;59.30;95268.19;5053329;28;20633;-68
2023/09/02 00:35:28;;;;;;;10.85;9.85;;;;;;;20.19;59.33;95264.59;5053841;28;20270;-68
2023/09/02 00:37:55;;;;;;;10.18;9.15;;;;;;;20.16;59.21;95282.22;5053609;28;20208;-68
2023/09/02 00:40:22;;;;;;;10.57;9.57;;;;;;;20.15;59.19;95277.84;5053164;28;20198;-68
2023/09/02 00:42:51;;;;;;;9.80;8.88;;;;;;;20.16;59.52;95273.81;5054668;28;20205;-68
2023/09/02 00:45:22;;;;;;;9.95;9.15;;;;;;;20.18;59.61;95281.81;5057105;28;20240;-68
2023/09/02 00:47:50;;;;;;;10.13;9.32;;;;;;;20.13;59.20;95280.25;5057147;28;20255;-68
2023/09/02 00:50:17;;;;;;;10.48;9.68;;;;;;;20.09;59.51;95276.66;5056908;28;20200;-68
2023/09/02 00:52:44;;;;;;;9.98;9.13;;;;;;;20.04;59.12;95279.09;5056862;28;20212;-68
2023/09/02 00:55:12;;;;;;;9.73;8.85;;;;;;;20.00;59.82;95276.31;5057747;28;20553;-67
2023/09/02 00:57:39;;;;;;;11.32;10.25;;;;;;;20.01;59.93;95280.72;5056581;28;20194;-67
2023/09/02 01:00:09;;;;;;;10.25;9.32;;;;;;;20.02;59.71;95278.72;5057400;28;20185;-67
2023/09/02 01:02:37;;;;;;;9.90;9.18;;;;;;;20.01;59.43;95279.91;5056778;28;20201;-68
2023/09/02 01:05:04;;;;;;;10.00;9.20;;;;;;;19.97;59.55;95279.91;5057490;28;20575;-68
2023/09/02 01:07:32;;;;;;;10.02;9.23;;;;;;;19.94;59.51;95277.97;5056315;28;20643;-68
2023/09/02 01:09:59;;;;;;;10.32;9.52;;;;;;;19.91;59.78;95273.97;5056637;28;20206;-68
2023/09/02 01:12:26;;;;;;;10.68;9.48;;;;;;;19.90;59.71;95275.19;5057372;28;20198;-67
2023/09/02 01:14:53;;;;;;;10.05;9.27;;;;;;;19.89;59.97;95276.38;5057121;28;20205;-67
2023/09/02 01:17:21;;;;;;;9.60;8.80;;;;;;;19.87;60.12;95278.00;5056196;28;20206;-67
2023/09/02 01:19:50;;;;;;;9.57;8.88;;;;;;;19.87;59.64;95275.22;5056203;28;20197;-67
2023/09/02 01:22:30;;;;;;;9.98;9.05;;;;;;;19.89;59.75;95279.16;5056050;28;20205;-67
2023/09/02 01:25:07;;;;;;;10.60;9.63;;;;;;;19.85;59.64;95274.81;5056517;28;20236;-67
2023/09/02 01:27:38;;;;;;;9.85;9.05;;;;;;;19.83;59.59;95272.44;5057204;28;20186;-67
2023/09/02 01:30:07;;;;;;;9.65;8.93;;;;;;;19.81;59.99;95282.44;5055905;28;20225;-67
2023/09/02 01:32:35;;;;;;;9.55;8.82;;;;;;;19.76;59.58;95274.47;5056127;28;20206;-67
2023/09/02 01:35:06;;;;;;;10.27;9.30;;;;;;;19.73;59.98;95275.28;5056420;28;20194;-67
2023/09/02 01:37:33;;;;;;;10.13;9.25;;;;;;;19.69;60.11;95280.88;5056166;28;20197;-67
2023/09/02 01:40:00;;;;;;;9.73;8.95;;;;;;;19.66;59.89;95276.09;5055706;28;20255;-67
2023/09/02 01:42:27;;;;;;;10.27;9.38;;;;;;;19.65;60.11;95283.69;5055803;28;20529;-67
2023/09/02 01:44:55;;;;;;;9.95;9.15;;;;;;;19.65;60.35;95285.72;5059224;28;20239;-67
2023/09/02 01:47:22;;;;;;;9.38;8.65;;;;;;;19.61;60.38;95279.31;5059371;28;20537;-67
2023/09/02 01:49:50;;;;;;;10.38;9.43;;;;;;;19.59;60.13;95282.50;5059100;28;20189;-67
2023/09/02 01:52:16;;;;;;;9.73;9.02;;;;;;;19.58;60.03;95283.69;5075555;28;20200;-67
2023/09/02 01:54:44;;;;;;;10.07;9.27;;;;;;;19.53;60.42;95284.09;5058378;28;20208;-67
2023/09/02 01:57:11;;;;;;;9.23;8.52;;;;;;;19.48;60.57;95293.72;5059572;28;20197;-67
2023/09/02 01:59:37;;;;;;;9.75;8.95;;;;;;;19.49;60.68;95289.72;5059164;28;20196;-67
2023/09/02 02:02:05;;;;;;;9.65;8.85;;;;;;;19.50;60.38;95290.53;5076623;28;20185;-67
2023/09/02 02:04:35;;;;;;;9.82;8.90;;;;;;;19.52;60.42;95290.91;5058752;28;20213;-67
2023/09/02 02:07:06;;;;;;;10.43;9.57;;;;;;;19.51;60.15;95285.72;5058586;28;20224;-67
2023/09/02 02:09:35;;;;;;;9.60;8.80;;;;;;;19.47;60.31;95291.34;5058938;28;20201;-67
2023/09/02 02:12:02;;;;;;;10.15;9.35;;;;;;;19.45;60.61;95294.53;5058898;28;20204;-67
2023/09/02 02:14:32;;;;;;;9.38;8.68;;;;;;;19.41;60.83;95290.16;5058735;28;20189;-67
2023/09/02 02:16:59;;;;;;;10.02;8.95;;;;;;;19.39;60.84;95292.53;5058409;28;20208;-68
2023/09/02 02:19:27;;;;;;;9.95;8.88;;;;;;;19.34;60.81;95290.97;5076181;28;20189;-68
2023/09/02 02:21:54;;;;;;;10.13;9.30;;;;;;;19.34;60.94;95295.78;5058801;28;20263;-68
2023/09/02 02:24:20;;;;;;;9.85;9.05;;;;;;;19.28;60.74;95297.38;5058117;28;20266;-68
2023/09/02 02:26:47;;;;;;;9.77;8.98;;;;;;;19.27;60.82;95293.78;5058857;28;20204;-67
2023/09/02 02:29:14;;;;;;;10.32;9.52;;;;;;;19.27;61.06;95296.59;5058363;28;20201;-68
2023/09/02 02:31:41;;;;;;;10.50;9.55;;;;;;;19.26;61.19;95297.00;5058349;28;20201;-67
2023/09/02 02:34:07;;;;;;;9.98;9.18;;;;;;;19.23;60.97;95295.81;5058350;28;20185;-68
2023/09/02 02:36:36;;;;;;;9.95;9.15;;;;;;;19.19;61.31;95295.00;5057964;28;20193;-68
2023/09/02 02:39:04;;;;;;;10.35;9.35;;;;;;;19.19;61.14;95295.00;5075845;28;20185;-67
2023/09/02 02:41:31;;;;;;;10.70;9.80;;;;;;;19.19;61.21;95295.81;5058104;28;20201;-68
2023/09/02 02:43:59;;;;;;;10.13;9.23;;;;;;;19.20;61.47;95296.59;5057890;28;20225;-67
2023/09/02 02:46:26;;;;;;;10.52;9.70;;;;;;;19.15;61.37;95297.03;5071032;28;20233;-68
2023/09/02 02:48:53;;;;;;;10.77;9.88;;;;;;;19.16;61.56;95293.81;5072062;28;20209;-68
2023/09/02 02:51:20;;;;;;;10.68;9.77;;;;;;;19.16;61.22;95291.03;5071272;28;20205;-68
2023/09/02 02:53:48;;;;;;;13.07;9.73;;;;;;;19.13;61.36;95297.41;5054946;28;20209;-68
2023/09/02 02:56:15;;;;;;;12.27;9.95;;;;;;;19.12;61.43;95300.63;5071330;28;20236;-68
2023/09/02 02:58:42;;;;;;;10.13;9.23;;;;;;;19.10;61.53;95300.22;5055339;28;20174;-68
2023/09/02 03:01:11;;;;;;;10.38;9.40;;;;;;;19.08;61.59;95300.63;5055432;28;20633;-68
2023/09/02 03:03:38;;;;;;;10.43;9.30;;;;;;;19.05;61.69;95301.44;5055619;28;20174;-68
2023/09/02 03:06:05;;;;;;;10.48;9.40;;;;;;;19.02;61.84;95305.03;5054184;28;20216;-67
2023/09/02 03:08:32;;;;;;;10.48;9.57;;;;;;;19.03;61.96;95309.44;5055015;28;20209;-68
2023/09/02 03:11:02;;;;;;;11.13;10.13;;;;;;;19.04;61.91;95299.03;5054378;28;20216;-68
2023/09/02 03:13:30;;;;;;;10.57;9.57;;;;;;;19.03;62.12;95311.41;5055417;28;20194;-68
2023/09/02 03:15:57;;;;;;;11.05;10.10;;;;;;;19.01;62.00;95311.81;5054344;28;20248;-68
2023/09/02 03:18:24;;;;;;;11.48;10.38;;;;;;;18.97;62.24;95309.03;5054323;28;20213;-68
2023/09/02 03:20:51;;;;;;;12.00;10.90;;;;;;;18.93;61.95;95299.84;5055042;28;20547;-68
2023/09/02 03:23:18;;;;;;;12.93;11.60;;;;;;;18.88;62.26;95307.84;5054263;28;20201;-68
2023/09/02 03:25:44;;;;;;;12.32;10.93;;;;;;;18.85;61.92;95303.06;5053939;28;20222;-68
2023/09/02 03:28:13;;;;;;;12.98;11.15;;;;;;;18.82;62.33;95306.66;5055142;28;20216;-68
2023/09/02 03:30:40;;;;;;;11.38;10.27;;;;;;;18.81;62.37;95305.03;5054873;28;20185;-68
2023/09/02 03:33:07;;;;;;;11.68;10.48;;;;;;;18.79;62.15;95307.47;5055367;28;20189;-69
2023/09/02 03:35:37;;;;;;;11.18;10.07;;;;;;;18.74;62.87;95301.09;5054544;28;20213;-69
2023/09/02 03:38:04;;;;;;;11.25;10.07;;;;;;;18.74;62.43;95300.28;5054831;28;20197;-69
2023/09/02 03:40:31;;;;;;;12.75;11.55;;;;;;;18.75;62.59;95313.06;5054096;28;20216;-68
2023/09/02 03:42:57;;;;;;;12.23;11.00;;;;;;;18.74;62.73;95306.66;5054229;28;20202;-68
2023/09/02 03:45:25;;;;;;;13.23;11.45;;;;;;;18.73;62.62;95312.63;5053781;28;20241;-68
2023/09/02 03:47:52;;;;;;;11.63;10.63;;;;;;;18.69;62.29;95317.41;5070821;28;20216;-68
2023/09/02 03:50:27;;;;;;;12.07;10.88;;;;;;;18.68;62.70;95316.59;5053957;28;20193;-68
2023/09/02 03:52:54;;;;;;;12.00;10.80;;;;;;;18.67;62.87;95323.41;5054098;28;20200;-68
2023/09/02 03:55:21;;;;;;;10.85;9.95;;;;;;;18.68;62.74;95319.41;5053607;28;20190;-68
2023/09/02 03:57:48;;;;;;;10.85;9.85;;;;;;;18.65;62.77;95316.59;5054086;28;20198;-68
2023/09/02 04:00:17;;;;;;;10.73;9.73;;;;;;;18.67;62.69;95315.03;5053844;28;20198;-68
2023/09/02 04:02:45;;;;;;;11.68;10.48;;;;;;;18.65;63.00;95319.41;5054621;28;20201;-68
2023/09/02 04:05:12;;;;;;;12.48;10.93;;;;;;;18.65;62.90;95311.03;5053803;28;20218;-68
2023/09/02 04:07:39;;;;;;;12.60;11.38;;;;;;;18.65;63.01;95323.00;5054436;28;20208;-68
2023/09/02 04:10:07;;;;;;;12.23;11.05;;;;;;;18.65;62.77;95322.19;5054733;28;20186;-68
2023/09/02 04:12:35;;;;;;;11.95;10.70;;;;;;;18.67;62.81;95323.41;5053806;28;20198;-68
2023/09/02 04:15:02;;;;;;;11.55;10.35;;;;;;;18.67;62.96;95329.00;5054422;28;20515;-67
2023/09/02 04:17:29;;;;;;;11.55;10.50;;;;;;;18.62;62.73;95334.97;5054248;28;20236;-68
2023/09/02 04:20:00;;;;;;;11.80;10.75;;;;;;;18.61;62.88;95332.56;5058566;28;20182;-68
2023/09/02 04:22:29;;;;;;;11.40;10.40;;;;;;;18.61;62.85;95327.00;5057437;28;20636;-68
2023/09/02 04:24:56;;;;;;;12.80;10.98;;;;;;;18.58;62.93;95330.56;5058200;28;20201;-69
2023/09/02 04:27:23;;;;;;;12.68;11.43;;;;;;;18.59;63.09;95335.78;5057854;28;20189;-68
2023/09/02 04:29:51;;;;;;;12.70;10.55;;;;;;;18.61;63.05;95333.38;5058381;28;20209;-68
2023/09/02 04:32:18;;;;;;;13.40;12.02;;;;;;;18.62;63.03;95328.56;5057541;28;20194;-68
2023/09/02 04:34:46;;;;;;;12.48;11.13;;;;;;;18.62;63.03;95336.97;5057053;28;20215;-68
2023/09/02 04:37:14;;;;;;;12.52;11.30;;;;;;;18.63;63.15;95333.78;5057932;28;20595;-68
2023/09/02 04:39:41;;;;;;;13.88;11.35;;;;;;;18.66;63.38;95332.16;5057231;28;20201;-68
2023/09/02 04:42:07;;;;;;;12.75;11.35;;;;;;;18.65;63.00;95339.75;5057105;28;20609;-68
2023/09/02 04:44:34;;;;;;;12.52;11.10;;;;;;;18.67;63.30;95331.78;5060233;28;20210;-68
2023/09/02 04:47:01;;;;;;;13.88;11.15;;;;;;;18.67;62.96;95336.56;5060141;28;20197;-68
2023/09/02 04:49:28;;;;;;;11.45;10.27;;;;;;;18.68;63.28;95340.97;5060604;28;20196;-68
2023/09/02 04:51:55;;;;;;;11.82;10.77;;;;;;;18.70;63.33;95342.16;5077770;28;20185;-68
2023/09/02 04:54:23;;;;;;;12.20;11.00;;;;;;;18.72;63.37;95342.56;5077847;28;20182;-68
2023/09/02 04:56:50;;;;;;;13.00;10.93;;;;;;;18.75;63.20;95343.78;5077079;28;20629;-68
2023/09/02 04:59:17;;;;;;;12.07;11.05;;;;;;;18.78;63.83;95345.78;5077876;28;20189;-68
2023/09/02 05:01:44;;;;;;;13.95;10.88;;;;;;;18.80;63.56;95343.38;5077626;28;20193;-68
2023/09/02 05:04:10;;;;;;;13.35;10.90;;;;;;;18.82;63.50;95340.19;5077783;28;20186;-68
2023/09/02 05:06:37;;;;;;;12.80;11.27;;;;;;;18.86;63.63;95341.00;5077243;28;20213;-68
2023/09/02 05:09:04;;;;;;;13.43;12.27;;;;;;;18.87;63.36;95342.56;5077225;28;20197;-68
2023/09/02 05:11:33;;;;;;;13.45;12.00;;;;;;;18.88;63.25;95349.75;5060081;28;20193;-68
2023/09/02 05:13:59;;;;;;;13.10;11.73;;;;;;;18.90;63.37;95350.16;5076831;28;20190;-68
2023/09/02 05:16:26;;;;;;;14.25;12.70;;;;;;;18.95;63.44;95353.38;5077469;28;20181;-68
2023/09/02 05:18:53;;;;;;;14.35;12.50;;;;;;;18.99;63.28;95353.34;5077442;28;20511;-67
2023/09/02 05:21:19;;;;;;;16.77;15.13;;;;;;;19.00;62.95;95358.53;5077619;28;20181;-67
2023/09/02 05:23:46;;;;;;;23.25;21.05;;;;;;;19.03;62.94;95353.34;5059649;28;20204;-68
2023/09/02 05:26:13;;;;;;;20.25;18.52;;;;;;;19.06;63.14;95350.53;5043233;28;20221;-68
2023/09/02 05:28:41;;;;;;;17.67;15.85;;;;;;;19.07;63.03;95357.75;5059391;28;20197;-68
2023/09/02 05:31:08;;;;;;;13.57;12.50;;;;;;;19.09;62.80;95357.34;5060088;28;20193;-67
2023/09/02 05:33:34;;;;;;;11.20;10.30;;;;;;;19.10;62.79;95356.13;5077210;28;20208;-67
2023/09/02 05:36:01;;;;;;;10.30;9.40;;;;;;;19.11;61.97;95354.94;5076894;28;20563;-68
2023/09/02 05:38:28;;;;;;;10.25;9.38;;;;;;;19.16;61.70;95351.72;5059121;28;20602;-72
2023/09/02 05:40:55;;;;;;;10.27;9.40;;;;;;;19.26;61.69;95359.31;5059650;28;20200;-69
2023/09/02 05:43:24;;;;;;;10.48;9.60;;;;;;;19.33;61.28;95356.50;5059462;28;20230;-69
2023/09/02 05:45:52;;;;;;;10.23;9.43;;;;;;;19.38;61.63;95353.28;5055626;28;20303;-69
2023/09/02 05:48:19;;;;;;;11.85;9.77;;;;;;;19.44;61.49;95350.88;5056511;28;20190;-69
2023/09/02 05:50:46;;;;;;;11.07;10.10;;;;;;;19.48;61.25;95360.06;5055784;28;20198;-69
2023/09/02 05:53:12;;;;;;;11.38;10.35;;;;;;;19.51;61.01;95356.47;5056805;28;20261;-69
2023/09/02 05:55:39;;;;;;;11.57;10.48;;;;;;;19.57;60.99;95362.44;5055739;28;20186;-69
2023/09/02 05:58:06;;;;;;;10.77;9.80;;;;;;;19.61;61.18;95358.44;5055801;28;20193;-69
2023/09/02 06:00:33;;;;;;;11.48;10.38;;;;;;;19.64;60.62;95360.44;5056555;28;20209;-69
2023/09/02 06:03:01;;;;;;;10.82;9.93;;;;;;;19.69;60.35;95365.63;5055751;28;20259;-69
2023/09/02 06:05:30;;;;;;;10.60;9.75;;;;;;;19.73;60.39;95365.63;5055542;28;20222;-69
2023/09/02 06:07:56;;;;;;;9.98;9.07;;;;;;;19.78;60.69;95364.41;5055655;28;20193;-69
2023/09/02 06:10:23;;;;;;;11.15;10.18;;;;;;;19.83;60.29;95369.59;5055396;28;20610;-67
2023/09/02 06:12:50;;;;;;;10.98;10.07;;;;;;;19.87;60.20;95373.97;5056488;28;20190;-67
2023/09/02 06:15:16;;;;;;;11.45;10.35;;;;;;;19.92;60.31;95381.13;5056129;28;20526;-67
2023/09/02 06:17:43;;;;;;;10.63;9.73;;;;;;;19.94;60.14;95375.94;5056182;28;20209;-68
2023/09/02 06:20:15;;;;;;;11.27;10.30;;;;;;;19.96;60.26;95360.31;5055123;28;20198;-69
2023/09/02 06:22:42;;;;;;;9.85;9.05;;;;;;;19.98;59.73;95365.53;5056055;28;20537;-68
2023/09/02 06:25:09;;;;;;;10.27;9.38;;;;;;;20.00;59.92;95367.91;5055363;28;20312;-69
2023/09/02 06:27:36;;;;;;;10.45;9.55;;;;;;;20.03;59.58;95372.69;5056123;28;20186;-70
2023/09/02 06:30:03;;;;;;;10.30;9.50;;;;;;;20.05;59.69;95362.69;5056164;28;20182;-68
2023/09/02 06:32:30;;;;;;;9.35;8.65;;;;;;;20.09;59.05;95371.88;5054841;28;20614;-68
2023/09/02 06:34:57;;;;;;;9.15;8.35;;;;;;;20.13;58.47;95374.66;5055887;28;20200;-68
2023/09/02 06:37:26;;;;;;;8.95;8.25;;;;;;;20.13;58.10;95371.84;5055252;28;20190;-67
2023/09/02 06:39:54;;;;;;;9.18;8.48;;;;;;;20.10;58.15;95365.06;5054637;28;20198;-67
2023/09/02 06:42:20;;;;;;;8.63;7.78;;;;;;;20.10;57.94;95370.66;5054581;28;20205;-67
2023/09/02 06:44:47;;;;;;;9.30;8.48;;;;;;;20.08;58.34;95361.88;5055143;28;20274;-67
2023/09/02 06:47:14;;;;;;;9.05;8.15;;;;;;;20.10;58.35;95361.47;5055073;28;20206;-67
2023/09/02 06:49:41;;;;;;;9.25;8.35;;;;;;;20.14;58.24;95360.22;5055380;28;20196;-67
2023/09/02 06:52:08;;;;;;;9.77;8.82;;;;;;;20.22;58.40;95360.19;5055690;28;20293;-67
2023/09/02 06:54:36;;;;;;;9.25;8.45;;;;;;;20.27;58.10;95370.97;5055545;28;20182;-67
2023/09/02 06:57:04;;;;;;;9.52;8.80;;;;;;;20.30;57.91;95375.75;5055218;28;20532;-67
2023/09/02 06:59:31;;;;;;;11.80;10.70;;;;;;;20.34;57.88;95368.16;5054936;28;20220;-67
2023/09/02 07:01:57;;;;;;;11.57;10.52;;;;;;;20.37;57.57;95379.31;5055654;28;20204;-67
2023/09/02 07:04:24;;;;;;;10.65;9.75;;;;;;;20.43;58.15;95374.06;5054499;28;20201;-67
2023/09/02 07:06:50;;;;;;;9.73;8.93;;;;;;;20.52;57.82;95365.25;5055487;28;20205;-67
2023/09/02 07:09:18;;;;;;;9.43;8.65;;;;;;;20.65;57.36;95375.56;5054582;28;20204;-67
2023/09/02 07:11:47;;;;;;;9.90;9.00;;;;;;;20.72;56.99;95371.13;5054464;28;20206;-67
2023/09/02 07:14:14;;;;;;;9.73;8.88;;;;;;;20.78;56.92;95375.88;5054442;28;20221;-67
2023/09/02 07:16:41;;;;;;;10.10;9.20;;;;;;;20.83;57.28;95372.63;5055323;28;20251;-67
2023/09/02 07:21:51;;;;;;;10.70;9.80;;;;;;;20.90;56.49;95377.38;5054860;28;20182;-67
2023/09/02 07:24:18;;;;;;;11.20;10.20;;;;;;;20.85;57.08;95373.03;5054247;28;20206;-67
2023/09/02 07:26:45;;;;;;;10.27;9.38;;;;;;;20.86;56.88;95371.81;5053974;28;20223;-67
2023/09/02 07:29:13;;;;;;;10.10;9.20;;;;;;;20.90;56.92;95378.19;5054885;28;20199;-67
2023/09/02 07:31:40;;;;;;;8.82;8.13;;;;;;;21.01;56.81;95363.28;5054193;28;20197;-67
2023/09/02 07:34:07;;;;;;;10.32;9.38;;;;;;;21.16;56.15;95368.34;5055076;28;20204;-67
2023/09/02 07:36:34;;;;;;;10.05;9.23;;;;;;;21.25;56.13;95375.50;5054089;28;20533;-67
2023/09/02 07:39:00;;;;;;;10.65;9.68;;;;;;;21.31;55.79;95368.22;5055030;28;20201;-67
2023/09/02 07:41:27;;;;;;;9.07;8.27;;;;;;;21.33;55.24;95363.00;5054689;28;20189;-67
2023/09/02 07:43:54;;;;;;;9.13;8.40;;;;;;;21.43;55.47;95364.13;5054217;28;20272;-67
2023/09/02 07:46:22;;;;;;;9.13;8.40;;;;;;;21.59;54.45;95364.34;5053548;28;20595;-67
2023/09/02 07:48:50;;;;;;;9.57;8.77;;;;;;;21.75;54.11;95360.97;5054668;28;20271;-67
2023/09/02 07:51:17;;;;;;;10.75;9.85;;;;;;;21.75;54.19;95364.59;5055329;28;20186;-67
2023/09/02 07:53:44;;;;;;;10.45;9.60;;;;;;;21.81;53.89;95359.28;5057749;28;20201;-67
2023/09/02 07:56:11;;;;;;;9.50;8.70;;;;;;;21.87;53.58;95366.84;5058919;28;20220;-67
2023/09/02 07:58:37;;;;;;;14.95;13.73;;;;;;;21.98;53.65;95369.53;5057838;28;20197;-68
2023/09/02 08:01:04;;;;;;;12.27;11.13;;;;;;;22.09;53.24;95375.00;5058819;28;20202;-67
2023/09/02 08:03:32;;;;;;;12.75;11.65;;;;;;;22.19;52.90;95367.69;5058686;28;20194;-67
2023/09/02 08:06:05;;;;;;;15.80;14.30;;;;;;;22.25;52.83;95375.22;5057959;28;20214;-67
2023/09/02 08:08:32;;;;;;;12.30;11.30;;;;;;;22.23;52.52;95374.84;5058375;28;20194;-67
2023/09/02 08:11:03;;;;;;;13.52;12.32;;;;;;;22.29;52.43;95366.75;5058289;28;20204;-67
2023/09/02 08:13:29;;;;;;;13.40;12.32;;;;;;;22.45;52.14;95369.75;5058540;28;20205;-67
2023/09/02 08:15:56;;;;;;;13.25;12.07;;;;;;;22.61;51.61;95373.94;5057290;28;20212;-67
2023/09/02 08:18:23;;;;;;;8.88;8.18;;;;;;;22.63;50.75;95374.31;5074061;28;20197;-68
2023/09/02 08:20:52;;;;;;;9.75;8.90;;;;;;;22.65;50.42;95378.28;5057932;28;20197;-68
2023/09/02 08:23:18;;;;;;;12.18;10.68;;;;;;;22.77;50.21;95379.72;5058604;28;20190;-67
2023/09/02 08:25:45;;;;;;;11.52;10.48;;;;;;;22.93;50.17;95376.28;5057128;28;20222;-67
2023/09/02 08:28:12;;;;;;;10.95;9.95;;;;;;;23.08;50.08;95374.03;5057627;28;20197;-68
2023/09/02 08:30:40;;;;;;;10.20;9.20;;;;;;;23.17;49.72;95377.91;5057353;28;20190;-67
2023/09/02 08:33:07;;;;;;;10.13;9.23;;;;;;;23.26;49.42;95374.53;5057449;28;20205;-67
2023/09/02 08:35:35;;;;;;;9.23;8.43;;;;;;;23.40;48.46;95376.31;5057538;28;20198;-67
2023/09/02 08:38:04;;;;;;;9.73;8.93;;;;;;;23.52;48.05;95364.41;5058119;28;20202;-67
2023/09/02 08:40:30;;;;;;;9.32;8.52;;;;;;;23.60;48.67;95367.91;5058138;28;20201;-67
2023/09/02 08:42:57;;;;;;;9.38;8.57;;;;;;;23.63;48.30;95362.19;5057336;28;20209;-67
2023/09/02 08:45:25;;;;;;;9.63;8.75;;;;;;;23.73;48.38;95358.41;5057295;28;20237;-67
2023/09/02 08:47:55;;;;;;;10.30;9.40;;;;;;;23.80;48.19;95365.16;5057813;28;20264;-67
2023/09/02 08:50:21;;;;;;;9.65;8.82;;;;;;;23.90;47.91;95356.50;5057683;28;20543;-67
2023/09/02 08:52:48;;;;;;;9.23;8.52;;;;;;;24.07;47.36;95357.34;5057021;28;20201;-67
2023/09/02 08:55:17;;;;;;;9.52;8.63;;;;;;;24.17;46.73;95361.16;5057924;28;20275;-67
2023/09/02 08:57:45;;;;;;;8.63;7.93;;;;;;;24.23;46.55;95348.16;5057058;28;20193;-68
2023/09/02 09:00:12;;;;;;;10.02;9.23;;;;;;;24.31;46.58;95352.41;5057010;28;20205;-67
2023/09/02 09:02:39;;;;;;;10.50;9.60;;;;;;;24.40;46.32;95349.84;5056842;28;20189;-67
2023/09/02 09:05:06;;;;;;;12.00;10.90;;;;;;;24.55;46.72;95349.50;5056290;28;20200;-67
2023/09/02 09:07:33;;;;;;;10.10;9.30;;;;;;;24.72;45.96;95345.47;5056928;28;20283;-67
2023/09/02 09:10:00;;;;;;;9.30;8.52;;;;;;;24.82;45.38;95355.72;5056819;28;20194;-68
2023/09/02 09:12:31;;;;;;;9.50;8.70;;;;;;;24.81;45.45;95347.72;5056589;28;20202;-68
2023/09/02 09:14:59;;;;;;;10.02;9.13;;;;;;;24.79;45.22;95339.66;5057124;28;20201;-68
2023/09/02 09:17:26;;;;;;;8.85;8.15;;;;;;;24.85;45.61;95342.78;5057196;28;20181;-67
2023/09/02 09:19:53;;;;;;;9.38;8.52;;;;;;;24.91;45.59;95336.16;5057571;28;20197;-68
2023/09/02 09:22:20;;;;;;;9.57;8.70;;;;;;;25.06;44.92;95339.44;5056237;28;20182;-67
2023/09/02 09:24:47;;;;;;;9.15;8.35;;;;;;;25.08;44.54;95338.97;5056334;28;20193;-68
2023/09/02 09:27:16;;;;;;;9.05;8.23;;;;;;;25.13;45.53;95339.28;5056934;28;20225;-68
2023/09/02 09:29:44;;;;;;;9.05;8.18;;;;;;;25.24;44.63;95339.03;5057313;28;20225;-67
2023/09/02 09:32:12;;;;;;;8.32;7.53;;;;;;;25.40;43.96;95326.91;5056907;28;20198;-67
2023/09/02 09:34:41;;;;;;;8.48;7.78;;;;;;;25.44;43.84;95325.56;5056319;28;20236;-67
2023/09/02 09:37:08;;;;;;;8.80;8.00;;;;;;;25.51;43.51;95318.16;5056361;28;20202;-67
2023/09/02 09:39:42;;;;;;;8.15;7.45;;;;;;;25.64;43.72;95327.47;5056860;28;20193;-67
2023/09/02 09:42:10;;;;;;;9.85;9.05;;;;;;;25.71;43.81;95321.63;5056270;28;20209;-67
2023/09/02 09:44:53;;;;;;;9.70;8.90;;;;;;;25.76;43.39;95320.28;5059198;28;21454;-67
2023/09/02 09:47:20;;;;;;;10.18;9.38;;;;;;;25.83;43.30;95317.28;5059181;28;20217;-67
2023/09/02 09:49:49;;;;;;;9.48;8.68;;;;;;;25.90;43.08;95314.28;5058927;28;20197;-67
2023/09/02 09:52:17;;;;;;;8.85;8.00;;;;;;;26.11;41.90;95315.69;5075847;28;20197;-67
2023/09/02 09:54:47;;;;;;;9.13;8.23;;;;;;;26.25;41.20;95306.75;5059409;28;20197;-67
2023/09/02 09:57:15;;;;;;;9.50;8.13;;;;;;;26.26;41.50;95316.06;5059293;28;20200;-67
2023/09/02 09:59:50;;;;;;;8.75;7.60;;;;;;;26.26;40.81;95319.69;5059329;28;20621;-67
2023/09/02 10:02:20;;;;;;;7.95;7.25;;;;;;;26.31;41.69;95310.63;5058913;28;20203;-67
2023/09/02 10:04:51;;;;;;;7.55;6.85;;;;;;;26.37;41.38;95305.22;5059034;28;20197;-67
2023/09/02 10:07:21;;;;;;;8.35;7.32;;;;;;;26.47;41.08;95306.13;5076350;28;20282;-68
2023/09/02 10:09:48;;;;;;;8.25;7.45;;;;;;;26.58;40.10;95306.59;5058924;28;20197;-67
2023/09/02 10:12:15;;;;;;;7.53;6.93;;;;;;;26.59;40.58;95308.19;5058640;28;20200;-68
2023/09/02 10:14:43;;;;;;;7.25;6.65;;;;;;;26.79;40.12;95305.13;5058264;28;20295;-67
2023/09/02 10:17:10;;;;;;;6.97;6.38;;;;;;;26.83;39.94;95298.09;5075062;28;20204;-67
2023/09/02 10:19:38;;;;;;;8.25;7.55;;;;;;;26.84;39.45;95290.44;5058625;28;20246;-68
2023/09/02 10:22:06;;;;;;;8.27;7.55;;;;;;;26.92;39.59;95300.25;5058733;28;20201;-67
2023/09/02 10:24:33;;;;;;;7.47;6.88;;;;;;;26.91;39.49;95289.38;5058363;28;20197;-67
2023/09/02 10:27:01;;;;;;;7.07;6.38;;;;;;;26.90;39.77;95291.41;5058728;28;20220;-67
2023/09/02 10:29:34;;;;;;;7.60;7.00;;;;;;;26.99;39.78;95283.03;5075777;28;20178;-67
2023/09/02 10:32:04;;;;;;;6.65;6.15;;;;;;;27.22;39.41;95281.09;5058437;28;20204;-67
2023/09/02 10:34:40;;;;;;;9.63;6.57;;;;;;;27.38;37.49;95282.97;5074965;28;20544;-67
2023/09/02 10:37:15;;;;;;;6.88;6.38;;;;;;;27.48;38.20;95282.59;5113584;27;20595;-67
2023/09/02 10:39:47;;;;;;;7.28;6.75;;;;;;;27.46;38.30;95273.00;5095518;28;20253;-67
2023/09/02 10:42:15;;;;;;;6.47;6.05;;;;;;;27.43;38.72;95273.91;5112730;28;20184;-67
2023/09/02 10:44:42;;;;;;;6.65;6.05;;;;;;;27.41;38.29;95271.50;5112598;28;20217;-67
2023/09/02 10:47:08;;;;;;;15.65;13.15;;;;;;;27.42;37.33;95275.16;5095594;28;20202;-67
2023/09/02 10:49:36;;;;;;;23.85;19.65;;;;;;;27.57;36.07;95274.19;5094911;28;20223;-67
2023/09/02 10:52:04;;;;;;;7.00;6.20;;;;;;;27.53;35.60;95286.91;5094588;28;20642;-67
2023/09/02 10:55:03;;;;;;;6.38;5.88;;;;;;;27.17;35.45;95284.53;5094875;28;20199;-67
2023/09/02 10:57:30;;;;;;;5.93;5.53;;;;;;;26.90;35.84;95280.09;5112430;28;20206;-67
2023/09/02 11:00:18;;;;;;;6.20;5.80;;;;;;;26.65;37.32;95275.25;5112556;28;20196;-67
2023/09/02 11:02:46;;;;;;;5.65;5.15;;;;;;;26.64;36.84;95271.63;5094552;28;20200;-67
2023/09/02 11:05:13;;;;;;;5.85;5.38;;;;;;;26.81;37.12;95275.16;5094656;28;20191;-67
2023/09/02 11:07:41;;;;;;;5.97;5.47;;;;;;;26.94;36.80;95271.50;5094484;28;20192;-69
2023/09/02 11:10:11;;;;;;;6.32;5.70;;;;;;;27.10;36.36;95268.53;5094481;28;20196;-70
2023/09/02 11:13:05;;;;;;;5.55;5.15;;;;;;;27.27;35.18;95272.00;5094194;28;20200;-68
2023/09/02 11:15:32;;;;;;;6.35;5.85;;;;;;;27.46;35.41;95270.94;5094233;28;20218;-68
2023/09/02 11:18:29;;;;;;;6.68;6.18;;;;;;;27.66;35.55;95272.66;5094458;28;20200;-70
2023/09/02 11:20:57;;;;;;;6.55;5.95;;;;;;;27.78;35.85;95263.38;5095032;28;20207;-68
2023/09/02 11:23:24;;;;;;;6.38;5.75;;;;;;;27.87;34.93;95263.41;5094758;28;20192;-68
2023/09/02 11:26:04;;;;;;;6.85;6.18;;;;;;;27.92;35.20;95259.97;5094318;28;20207;-68
2023/09/02 11:28:31;;;;;;;6.13;5.63;;;;;;;28.01;35.37;95254.38;5093989;28;20194;-68
2023/09/02 11:31:08;;;;;;;6.28;5.88;;;;;;;28.06;34.63;95262.28;5128990;28;20207;-68
2023/09/02 11:33:35;;;;;;;6.38;5.88;;;;;;;28.13;34.82;95258.38;5093989;28;20203;-68